createdAt,value
2022-08-26T00:00:50.000Z,291.27
2022-08-26T00:02:56.000Z,291.15
2022-08-26T00:04:22.000Z,291.09
2022-08-26T00:06:29.000Z,291.09
2022-08-26T00:07:56.000Z,291.09
2022-08-26T00:10:02.000Z,291.15
2022-08-26T00:11:29.000Z,291.15
2022-08-26T00:13:35.000Z,291.09
2022-08-26T00:15:02.000Z,291.09
2022-08-26T00:17:08.000Z,291.09
2022-08-26T00:18:34.000Z,291.09
2022-08-26T00:20:44.000Z,291.02
2022-08-26T00:23:36.000Z,290.96
2022-08-26T00:25:03.000Z,290.96
2022-08-26T00:27:09.000Z,290.84
2022-08-26T00:28:35.000Z,290.9
2022-08-26T00:30:41.000Z,290.9
2022-08-26T00:32:10.000Z,290.84
2022-08-26T00:34:18.000Z,290.84
2022-08-26T00:35:44.000Z,290.9
2022-08-26T00:37:51.000Z,290.84
2022-08-26T00:39:17.000Z,290.77
2022-08-26T00:41:24.000Z,290.77
2022-08-26T00:42:51.000Z,290.71
2022-08-26T00:44:58.000Z,290.77
2022-08-26T00:46:24.000Z,290.65
2022-08-26T00:48:30.000Z,290.77
2022-08-26T00:49:57.000Z,290.71
2022-08-26T00:52:03.000Z,290.71
2022-08-26T00:53:34.000Z,290.71
2022-08-26T00:55:40.000Z,290.71
2022-08-26T00:57:07.000Z,290.71
2022-08-26T00:59:20.000Z,290.52
2022-08-26T01:02:11.000Z,290.52
2022-08-26T01:03:44.000Z,290.52
2022-08-26T01:05:50.000Z,290.52
2022-08-26T01:07:18.000Z,290.46
2022-08-26T01:09:25.000Z,290.46
2022-08-26T01:10:52.000Z,290.46
2022-08-26T01:12:59.000Z,290.46
2022-08-26T01:14:27.000Z,290.46
2022-08-26T01:16:33.000Z,290.34
2022-08-26T01:18:00.000Z,290.4
2022-08-26T01:20:06.000Z,290.34
2022-08-26T01:21:33.000Z,290.4
2022-08-26T01:23:44.000Z,290.46
2022-08-26T01:25:11.000Z,290.4
2022-08-26T01:27:17.000Z,290.34
2022-08-26T01:28:44.000Z,290.34
2022-08-26T01:30:54.000Z,290.34
2022-08-26T01:32:22.000Z,290.27
2022-08-26T01:34:28.000Z,290.27
2022-08-26T01:35:55.000Z,290.27
2022-08-26T01:38:01.000Z,290.27
2022-08-26T01:40:53.000Z,290.21
2022-08-26T01:42:19.000Z,290.15
2022-08-26T01:44:27.000Z,290.02
2022-08-26T01:45:54.000Z,290.02
2022-08-26T01:48:00.000Z,290.15
2022-08-26T01:49:27.000Z,290.09
2022-08-26T01:51:35.000Z,290.02
2022-08-26T01:53:02.000Z,289.96
2022-08-26T01:55:08.000Z,289.9
2022-08-26T01:56:35.000Z,290.02
2022-08-26T01:58:41.000Z,289.9
2022-08-26T02:00:07.000Z,289.9
2022-08-26T02:02:14.000Z,289.84
2022-08-26T02:03:41.000Z,289.84
2022-08-26T02:05:47.000Z,289.77
2022-08-26T02:07:16.000Z,289.84
2022-08-26T02:09:22.000Z,289.77
2022-08-26T02:10:49.000Z,289.65
2022-08-26T02:12:59.000Z,289.71
2022-08-26T02:14:25.000Z,289.71
2022-08-26T02:16:31.000Z,289.71
2022-08-26T02:19:25.000Z,289.71
2022-08-26T02:20:51.000Z,289.71
2022-08-26T02:22:57.000Z,289.77
2022-08-26T02:24:24.000Z,289.77
2022-08-26T02:26:31.000Z,289.77
2022-08-26T02:27:58.000Z,289.71
2022-08-26T02:30:04.000Z,289.59
2022-08-26T02:31:31.000Z,289.65
2022-08-26T02:33:39.000Z,289.71
2022-08-26T02:35:07.000Z,289.77
2022-08-26T02:37:13.000Z,289.77
2022-08-26T02:38:42.000Z,289.77
2022-08-26T02:40:50.000Z,289.77
2022-08-26T02:42:16.000Z,289.77
2022-08-26T02:44:23.000Z,289.84
2022-08-26T02:45:49.000Z,289.77
2022-08-26T02:47:56.000Z,289.77
2022-08-26T02:49:24.000Z,289.77
2022-08-26T02:51:30.000Z,289.71
2022-08-26T02:52:57.000Z,289.77
2022-08-26T02:55:04.000Z,289.77
2022-08-26T02:57:55.000Z,289.84
2022-08-26T02:59:21.000Z,289.84
2022-08-26T03:01:28.000Z,289.9
2022-08-26T03:02:55.000Z,289.9
2022-08-26T03:05:01.000Z,289.9
2022-08-26T03:06:28.000Z,289.9
2022-08-26T03:08:34.000Z,289.77
2022-08-26T03:10:01.000Z,289.65
2022-08-26T03:12:12.000Z,289.65
2022-08-26T03:13:39.000Z,289.65
2022-08-26T03:15:45.000Z,289.65
2022-08-26T03:17:12.000Z,289.65
2022-08-26T03:19:18.000Z,289.71
2022-08-26T03:20:44.000Z,289.65
2022-08-26T03:22:51.000Z,289.59
2022-08-26T03:24:20.000Z,289.59
2022-08-26T03:26:29.000Z,289.59
2022-08-26T03:27:55.000Z,289.59
2022-08-26T03:30:03.000Z,289.59
2022-08-26T03:31:30.000Z,289.59
2022-08-26T03:33:36.000Z,289.59
2022-08-26T03:36:27.000Z,289.46
2022-08-26T03:37:54.000Z,289.4
2022-08-26T03:40:01.000Z,289.4
2022-08-26T03:41:27.000Z,289.4
2022-08-26T03:43:34.000Z,289.46
2022-08-26T03:45:00.000Z,289.46
2022-08-26T03:47:06.000Z,289.52
2022-08-26T03:48:33.000Z,289.59
2022-08-26T03:50:39.000Z,289.65
2022-08-26T03:52:07.000Z,289.71
2022-08-26T03:54:13.000Z,289.71
2022-08-26T03:55:40.000Z,289.65
2022-08-26T03:57:47.000Z,289.65
2022-08-26T03:59:14.000Z,289.71
2022-08-26T04:01:21.000Z,289.84
2022-08-26T04:02:47.000Z,289.84
2022-08-26T04:04:54.000Z,289.84
2022-08-26T04:06:20.000Z,289.84
2022-08-26T04:08:28.000Z,289.84
2022-08-26T04:09:54.000Z,289.77
2022-08-26T04:12:00.000Z,289.71
2022-08-26T04:14:52.000Z,289.65
2022-08-26T04:16:22.000Z,289.65
2022-08-26T04:18:30.000Z,289.71
2022-08-26T04:20:01.000Z,289.71
2022-08-26T04:22:07.000Z,289.77
2022-08-26T04:23:34.000Z,289.9
2022-08-26T04:25:51.000Z,289.77
2022-08-26T04:27:18.000Z,289.71
2022-08-26T04:29:24.000Z,289.52
2022-08-26T04:30:51.000Z,289.46
2022-08-26T04:32:57.000Z,289.46
2022-08-26T04:34:23.000Z,289.4
2022-08-26T04:36:32.000Z,289.46
2022-08-26T04:38:00.000Z,289.46
2022-08-26T04:40:09.000Z,289.46
2022-08-26T04:41:36.000Z,289.52
2022-08-26T04:43:44.000Z,289.52
2022-08-26T04:45:10.000Z,289.59
2022-08-26T04:47:16.000Z,289.65
2022-08-26T04:48:43.000Z,289.65
2022-08-26T04:50:49.000Z,289.65
2022-08-26T04:53:41.000Z,289.71
2022-08-26T04:55:08.000Z,289.71
2022-08-26T04:57:14.000Z,289.77
2022-08-26T04:58:41.000Z,289.77
2022-08-26T05:00:47.000Z,289.71
2022-08-26T05:02:13.000Z,289.77
2022-08-26T05:04:19.000Z,289.77
2022-08-26T05:05:46.000Z,289.84
2022-08-26T05:07:52.000Z,289.9
2022-08-26T05:09:19.000Z,289.96
2022-08-26T05:11:26.000Z,289.96
2022-08-26T05:12:53.000Z,290.02
2022-08-26T05:15:00.000Z,290.09
2022-08-26T05:16:27.000Z,290.15
2022-08-26T05:18:33.000Z,290.27
2022-08-26T05:20:00.000Z,290.27
2022-08-26T05:22:07.000Z,290.34
2022-08-26T05:23:37.000Z,290.34
2022-08-26T05:25:43.000Z,290.27
2022-08-26T05:27:10.000Z,290.27
2022-08-26T05:29:16.000Z,290.34
2022-08-26T05:32:09.000Z,290.34
2022-08-26T05:33:35.000Z,290.4
2022-08-26T05:35:45.000Z,290.4
2022-08-26T05:37:11.000Z,290.46
2022-08-26T05:39:21.000Z,290.52
2022-08-26T05:40:47.000Z,290.59
2022-08-26T05:42:57.000Z,290.59
2022-08-26T05:44:23.000Z,290.65
2022-08-26T05:46:30.000Z,290.71
2022-08-26T05:47:56.000Z,290.77
2022-08-26T05:50:02.000Z,290.9
2022-08-26T05:51:29.000Z,290.96
2022-08-26T05:53:35.000Z,291.02
2022-08-26T05:55:03.000Z,291.09
2022-08-26T05:57:10.000Z,291.15
2022-08-26T05:58:37.000Z,291.21
2022-08-26T06:00:43.000Z,291.34
2022-08-26T06:02:09.000Z,291.4
2022-08-26T06:04:17.000Z,291.46
2022-08-26T06:05:44.000Z,291.46
2022-08-26T06:07:51.000Z,291.46
2022-08-26T06:10:42.000Z,291.52
2022-08-26T06:12:10.000Z,291.52
2022-08-26T06:14:19.000Z,291.59
2022-08-26T06:15:45.000Z,291.59
2022-08-26T06:17:51.000Z,291.71
2022-08-26T06:19:18.000Z,291.71
2022-08-26T06:21:26.000Z,291.84
2022-08-26T06:22:52.000Z,291.9
2022-08-26T06:24:58.000Z,291.96
2022-08-26T06:26:25.000Z,292.02
2022-08-26T06:28:31.000Z,292.09
2022-08-26T06:29:58.000Z,292.15
2022-08-26T06:32:04.000Z,292.15
2022-08-26T06:33:31.000Z,292.27
2022-08-26T06:35:37.000Z,292.34
2022-08-26T06:37:04.000Z,292.4
2022-08-26T06:39:10.000Z,292.27
2022-08-26T06:40:38.000Z,292.27
2022-08-26T06:42:47.000Z,292.4
2022-08-26T06:44:13.000Z,292.46
2022-08-26T06:46:20.000Z,292.65
2022-08-26T06:49:11.000Z,292.77
2022-08-26T06:50:41.000Z,292.9
2022-08-26T06:52:47.000Z,293.09
2022-08-26T06:54:14.000Z,293.15
2022-08-26T06:56:20.000Z,293.34
2022-08-26T06:57:46.000Z,293.4
2022-08-26T06:59:53.000Z,293.46
2022-08-26T07:01:19.000Z,293.52
2022-08-26T07:03:25.000Z,293.65
2022-08-26T07:04:53.000Z,293.71
2022-08-26T07:07:01.000Z,293.9
2022-08-26T07:08:27.000Z,293.84
2022-08-26T07:10:35.000Z,293.84
2022-08-26T07:12:01.000Z,293.9
2022-08-26T07:14:08.000Z,293.96
2022-08-26T07:15:35.000Z,294.09
2022-08-26T07:17:41.000Z,294.27
2022-08-26T07:19:07.000Z,294.27
2022-08-26T07:21:15.000Z,294.46
2022-08-26T07:22:42.000Z,294.52
2022-08-26T07:24:49.000Z,294.71
2022-08-26T07:27:40.000Z,294.77
2022-08-26T07:29:06.000Z,294.9
2022-08-26T07:31:13.000Z,295.02
2022-08-26T07:32:39.000Z,295.02
2022-08-26T07:34:45.000Z,295.21
2022-08-26T07:36:12.000Z,295.34
2022-08-26T07:38:18.000Z,295.46
2022-08-26T07:39:45.000Z,295.59
2022-08-26T07:41:51.000Z,295.59
2022-08-26T07:43:17.000Z,295.71
2022-08-26T07:45:24.000Z,295.77
2022-08-26T07:46:50.000Z,295.84
2022-08-26T07:48:57.000Z,295.96
2022-08-26T07:50:24.000Z,296.02
2022-08-26T07:52:54.000Z,296.21
2022-08-26T07:54:21.000Z,296.27
2022-08-26T07:56:31.000Z,296.4
2022-08-26T07:57:57.000Z,296.46
2022-08-26T08:00:04.000Z,296.46
2022-08-26T08:01:30.000Z,296.52
2022-08-26T08:03:37.000Z,296.65
2022-08-26T08:06:28.000Z,296.96
2022-08-26T08:07:56.000Z,297.09
2022-08-26T08:10:33.000Z,297.15
2022-08-26T08:11:59.000Z,297.34
2022-08-26T08:14:05.000Z,297.46
2022-08-26T08:15:33.000Z,297.46
2022-08-26T08:17:39.000Z,297.77
2022-08-26T08:19:06.000Z,297.84
2022-08-26T08:21:12.000Z,297.9
2022-08-26T08:22:48.000Z,297.9
2022-08-26T08:24:55.000Z,297.96
2022-08-26T08:26:22.000Z,298.02
2022-08-26T08:28:28.000Z,298.15
2022-08-26T08:29:55.000Z,298.21
2022-08-26T08:32:01.000Z,298.34
2022-08-26T08:33:28.000Z,298.4
2022-08-26T08:35:34.000Z,298.46
2022-08-26T08:37:01.000Z,298.59
2022-08-26T08:39:11.000Z,298.65
2022-08-26T08:40:38.000Z,298.77
2022-08-26T08:42:45.000Z,298.77
2022-08-26T08:45:37.000Z,298.9
2022-08-26T08:47:03.000Z,298.96
2022-08-26T08:49:10.000Z,299.09
2022-08-26T08:50:38.000Z,299.21
2022-08-26T08:52:45.000Z,299.27
2022-08-26T08:54:12.000Z,299.27
2022-08-26T08:56:18.000Z,299.34
2022-08-26T08:57:44.000Z,299.46
2022-08-26T08:59:51.000Z,299.59
2022-08-26T09:01:18.000Z,299.65
2022-08-26T09:03:24.000Z,299.77
2022-08-26T09:04:51.000Z,299.9
2022-08-26T09:06:57.000Z,300.02
2022-08-26T09:08:23.000Z,300.02
2022-08-26T09:10:30.000Z,300.15
2022-08-26T09:11:56.000Z,300.15
2022-08-26T09:14:02.000Z,300.21
2022-08-26T09:15:29.000Z,300.27
2022-08-26T09:17:35.000Z,300.34
2022-08-26T09:19:02.000Z,300.4
2022-08-26T09:21:08.000Z,300.59
2022-08-26T09:23:59.000Z,300.59
2022-08-26T09:25:26.000Z,300.65
2022-08-26T09:27:35.000Z,300.65
2022-08-26T09:29:02.000Z,300.71
2022-08-26T09:31:08.000Z,300.71
2022-08-26T09:32:36.000Z,300.71
2022-08-26T09:34:43.000Z,300.77
2022-08-26T09:36:09.000Z,300.77
2022-08-26T09:38:15.000Z,300.96
2022-08-26T09:39:42.000Z,301.09
2022-08-26T09:41:49.000Z,301.21
2022-08-26T09:43:16.000Z,301.4
2022-08-26T09:45:27.000Z,301.52
2022-08-26T09:46:54.000Z,301.59
2022-08-26T09:49:00.000Z,301.71
2022-08-26T09:50:29.000Z,301.84
2022-08-26T09:52:35.000Z,301.84
2022-08-26T09:54:04.000Z,302.02
2022-08-26T09:56:12.000Z,302.15
2022-08-26T09:57:38.000Z,302.27
2022-08-26T09:59:48.000Z,302.27
2022-08-26T10:02:40.000Z,302.4
2022-08-26T10:04:13.000Z,302.46
2022-08-26T10:06:20.000Z,302.59
2022-08-26T10:07:46.000Z,302.71
2022-08-26T10:09:53.000Z,302.77
2022-08-26T10:11:20.000Z,302.9
2022-08-26T10:13:26.000Z,302.9
2022-08-26T10:14:54.000Z,302.9
2022-08-26T10:17:00.000Z,302.84
2022-08-26T10:18:26.000Z,302.96
2022-08-26T10:20:38.000Z,303.21
2022-08-26T10:22:08.000Z,302.96
2022-08-26T10:24:15.000Z,302.65
2022-08-26T10:25:42.000Z,302.4
2022-08-26T10:27:48.000Z,301.84
2022-08-26T10:29:18.000Z,300.77
2022-08-26T10:31:26.000Z,298.34
2022-08-26T10:32:53.000Z,297.77
2022-08-26T10:34:59.000Z,297.77
2022-08-26T10:36:30.000Z,297.4
2022-08-26T10:38:47.000Z,296.52
2022-08-26T10:41:39.000Z,295.27
2022-08-26T10:43:05.000Z,295.02
2022-08-26T10:45:15.000Z,295.34
2022-08-26T10:46:44.000Z,295.46
2022-08-26T10:48:50.000Z,295.65
2022-08-26T10:50:17.000Z,295.52
2022-08-26T10:52:23.000Z,294.9
2022-08-26T10:53:53.000Z,294.9
2022-08-26T10:56:00.000Z,294.9
2022-08-26T10:57:26.000Z,294.96
2022-08-26T10:59:33.000Z,295.09
2022-08-26T11:01:01.000Z,294.96
2022-08-26T11:03:14.000Z,294.59
2022-08-26T11:04:47.000Z,294.77
2022-08-26T11:06:54.000Z,294.71
2022-08-26T11:08:21.000Z,294.46
2022-08-26T11:10:28.000Z,294.59
2022-08-26T11:11:55.000Z,294.59
2022-08-26T11:14:01.000Z,294.46
2022-08-26T11:15:27.000Z,294.4
2022-08-26T11:17:34.000Z,294.59
2022-08-26T11:20:24.000Z,294.52
2022-08-26T11:21:51.000Z,294.52
2022-08-26T11:23:57.000Z,294.52
2022-08-26T11:25:23.000Z,294.46
2022-08-26T11:27:35.000Z,294.77
2022-08-26T11:29:02.000Z,294.96
2022-08-26T11:31:16.000Z,294.96
2022-08-26T11:32:42.000Z,295.09
2022-08-26T11:34:52.000Z,294.96
2022-08-26T11:36:20.000Z,294.96
2022-08-26T11:38:29.000Z,295.02
2022-08-26T11:39:56.000Z,295.09
2022-08-26T11:42:02.000Z,295.46
2022-08-26T11:43:30.000Z,295.52
2022-08-26T11:45:36.000Z,295.34
2022-08-26T11:47:03.000Z,295.21
2022-08-26T11:49:15.000Z,295.4
2022-08-26T11:50:42.000Z,295.59
2022-08-26T11:52:50.000Z,295.77
2022-08-26T11:54:16.000Z,295.59
2022-08-26T11:56:39.000Z,295.4
2022-08-26T12:01:00.000Z,295.34
2022-08-26T12:03:07.000Z,295.4
2022-08-26T12:04:34.000Z,295.52
2022-08-26T12:06:41.000Z,295.65
2022-08-26T12:08:10.000Z,295.84
2022-08-26T12:10:16.000Z,295.96
2022-08-26T12:11:42.000Z,296.02
2022-08-26T12:13:49.000Z,296.09
2022-08-26T12:15:15.000Z,296.21
2022-08-26T12:17:22.000Z,296.34
2022-08-26T12:18:49.000Z,296.46
2022-08-26T12:20:55.000Z,296.59
2022-08-26T12:22:22.000Z,296.71
2022-08-26T12:24:28.000Z,296.9
2022-08-26T12:25:55.000Z,296.9
2022-08-26T12:28:01.000Z,297.09
2022-08-26T12:29:28.000Z,297.21
2022-08-26T12:31:34.000Z,297.34
2022-08-26T12:33:01.000Z,297.46
2022-08-26T12:35:25.000Z,297.84
2022-08-26T12:38:17.000Z,298.27
2022-08-26T12:39:43.000Z,298.52
2022-08-26T12:41:49.000Z,298.71
2022-08-26T12:43:16.000Z,298.84
2022-08-26T12:45:23.000Z,299.02
2022-08-26T12:46:50.000Z,299.09
2022-08-26T12:48:56.000Z,299.21
2022-08-26T12:50:23.000Z,299.34
2022-08-26T12:52:29.000Z,299.4
2022-08-26T12:53:55.000Z,299.46
2022-08-26T12:56:01.000Z,299.46
2022-08-26T12:57:28.000Z,299.59
2022-08-26T12:59:34.000Z,299.71
2022-08-26T13:01:01.000Z,299.65
2022-08-26T13:03:07.000Z,299.77
2022-08-26T13:04:34.000Z,299.9
2022-08-26T13:06:40.000Z,299.9
2022-08-26T13:08:07.000Z,299.9
2022-08-26T13:10:13.000Z,300.02
2022-08-26T13:11:40.000Z,300.21
2022-08-26T13:13:46.000Z,300.15
2022-08-26T13:16:38.000Z,300.34
2022-08-26T13:18:05.000Z,300.46
2022-08-26T13:20:11.000Z,300.59
2022-08-26T13:21:37.000Z,300.65
2022-08-26T13:23:43.000Z,300.71
2022-08-26T13:25:10.000Z,300.71
2022-08-26T13:27:16.000Z,300.71
2022-08-26T13:28:43.000Z,300.84
2022-08-26T13:30:57.000Z,300.9
2022-08-26T13:32:23.000Z,300.96
2022-08-26T13:34:31.000Z,301.02
2022-08-26T13:35:58.000Z,300.84
2022-08-26T13:38:04.000Z,300.77
2022-08-26T13:39:31.000Z,300.59
2022-08-26T13:41:37.000Z,300.52
2022-08-26T13:43:03.000Z,300.65
2022-08-26T13:45:10.000Z,300.71
2022-08-26T13:46:36.000Z,300.52
2022-08-26T13:48:43.000Z,300.46
2022-08-26T13:50:09.000Z,300.34
2022-08-26T13:52:15.000Z,300.27
2022-08-26T13:55:19.000Z,300.34
2022-08-26T13:56:45.000Z,300.27
2022-08-26T13:58:52.000Z,300.09
2022-08-26T14:00:18.000Z,300.21
2022-08-26T14:02:24.000Z,300.15
2022-08-26T14:03:51.000Z,300.21
2022-08-26T14:05:57.000Z,300.27
2022-08-26T14:07:23.000Z,300.15
2022-08-26T14:09:30.000Z,300.15
2022-08-26T14:11:02.000Z,300.02
2022-08-26T14:13:08.000Z,299.84
2022-08-26T14:14:34.000Z,299.65
2022-08-26T14:16:41.000Z,299.46
2022-08-26T14:18:24.000Z,299.21
2022-08-26T14:20:32.000Z,299.09
2022-08-26T14:21:59.000Z,299.15
2022-08-26T14:24:05.000Z,298.9
2022-08-26T14:25:32.000Z,298.84
2022-08-26T14:27:38.000Z,299.21
2022-08-26T14:29:05.000Z,299.09
2022-08-26T14:31:11.000Z,298.96
2022-08-26T14:34:03.000Z,298.84
2022-08-26T14:35:29.000Z,298.77
2022-08-26T14:37:35.000Z,299.09
2022-08-26T14:39:02.000Z,299.15
2022-08-26T14:41:08.000Z,298.84
2022-08-26T14:42:35.000Z,298.84
2022-08-26T14:44:42.000Z,298.96
2022-08-26T14:46:09.000Z,299.09
2022-08-26T14:48:15.000Z,299.09
2022-08-26T14:49:41.000Z,299.09
2022-08-26T14:51:48.000Z,299.02
2022-08-26T14:53:14.000Z,299.02
2022-08-26T14:55:20.000Z,299.02
2022-08-26T14:56:47.000Z,298.96
2022-08-26T14:58:53.000Z,298.77
2022-08-26T15:00:19.000Z,298.84
2022-08-26T15:02:26.000Z,298.77
2022-08-26T15:03:58.000Z,298.77
2022-08-26T15:06:04.000Z,298.71
2022-08-26T15:07:31.000Z,298.71
2022-08-26T15:09:37.000Z,298.71
2022-08-26T15:12:28.000Z,298.65
2022-08-26T15:13:54.000Z,298.59
2022-08-26T15:16:01.000Z,298.59
2022-08-26T15:17:27.000Z,298.59
2022-08-26T15:19:33.000Z,298.59
2022-08-26T15:21:00.000Z,298.65
2022-08-26T15:23:06.000Z,298.59
2022-08-26T15:24:33.000Z,298.59
2022-08-26T15:26:39.000Z,298.59
2022-08-26T15:28:06.000Z,298.59
2022-08-26T15:30:12.000Z,298.65
2022-08-26T15:31:38.000Z,298.65
2022-08-26T15:33:45.000Z,298.71
2022-08-26T15:35:11.000Z,298.65
2022-08-26T15:37:17.000Z,298.71
2022-08-26T15:38:44.000Z,298.77
2022-08-26T15:40:50.000Z,298.9
2022-08-26T15:42:17.000Z,298.9
2022-08-26T15:44:23.000Z,298.96
2022-08-26T15:45:49.000Z,299.02
2022-08-26T15:47:56.000Z,299.02
2022-08-26T15:50:50.000Z,299.09
2022-08-26T15:52:17.000Z,299.09
2022-08-26T15:54:23.000Z,299.02
2022-08-26T15:55:49.000Z,299.09
2022-08-26T15:57:56.000Z,299.09
2022-08-26T15:59:23.000Z,299.15
2022-08-26T16:01:29.000Z,299.09
2022-08-26T16:02:55.000Z,299.15
2022-08-26T16:05:01.000Z,299.02
2022-08-26T16:06:28.000Z,299.02
2022-08-26T16:08:34.000Z,299.09
2022-08-26T16:10:01.000Z,299.09
2022-08-26T16:12:07.000Z,299.02
2022-08-26T16:13:33.000Z,298.96
2022-08-26T16:15:44.000Z,298.96
2022-08-26T16:17:10.000Z,298.9
2022-08-26T16:19:17.000Z,298.65
2022-08-26T16:20:43.000Z,298.52
2022-08-26T16:23:17.000Z,298.27
2022-08-26T16:24:44.000Z,298.27
2022-08-26T16:26:50.000Z,298.21
2022-08-26T16:29:41.000Z,297.96
2022-08-26T16:31:08.000Z,297.71
2022-08-26T16:33:14.000Z,297.59
2022-08-26T16:34:54.000Z,297.59
2022-08-26T16:37:01.000Z,297.65
2022-08-26T16:38:27.000Z,297.77
2022-08-26T16:40:33.000Z,297.84
2022-08-26T16:42:00.000Z,297.96
2022-08-26T16:44:06.000Z,297.84
2022-08-26T16:45:32.000Z,297.9
2022-08-26T16:47:39.000Z,297.71
2022-08-26T16:49:05.000Z,297.52
2022-08-26T16:51:11.000Z,297.4
2022-08-26T16:52:38.000Z,296.96
2022-08-26T16:54:44.000Z,297.02
2022-08-26T16:56:10.000Z,297.27
2022-08-26T16:58:17.000Z,297.27
2022-08-26T16:59:46.000Z,297.21
2022-08-26T17:01:52.000Z,297.15
2022-08-26T17:03:19.000Z,297.21
2022-08-26T17:05:25.000Z,297.27
2022-08-26T17:08:16.000Z,296.9
2022-08-26T17:09:53.000Z,296.77
2022-08-26T17:11:59.000Z,296.71
2022-08-26T17:13:26.000Z,296.77
2022-08-26T17:15:40.000Z,296.9
2022-08-26T17:17:06.000Z,296.77
2022-08-26T17:19:12.000Z,296.59
2022-08-26T17:20:39.000Z,296.34
2022-08-26T17:22:45.000Z,296.27
2022-08-26T17:24:12.000Z,296.21
2022-08-26T17:26:18.000Z,295.96
2022-08-26T17:27:44.000Z,296.09
2022-08-26T17:29:51.000Z,296.09
2022-08-26T17:31:17.000Z,296.15
2022-08-26T17:33:23.000Z,296.15
2022-08-26T17:34:50.000Z,295.96
2022-08-26T17:36:56.000Z,296.02
2022-08-26T17:38:23.000Z,295.9
2022-08-26T17:40:29.000Z,296.02
2022-08-26T17:41:56.000Z,295.96
2022-08-26T17:44:02.000Z,295.77
2022-08-26T17:46:53.000Z,296.02
2022-08-26T17:48:20.000Z,296.09
2022-08-26T17:50:26.000Z,295.96
2022-08-26T17:51:53.000Z,295.96
2022-08-26T17:53:59.000Z,295.96
2022-08-26T17:55:25.000Z,295.77
2022-08-26T17:57:31.000Z,295.34
2022-08-26T17:59:05.000Z,295.4
2022-08-26T18:01:11.000Z,295.09
2022-08-26T18:02:38.000Z,295.09
2022-08-26T18:04:44.000Z,294.9
2022-08-26T18:06:11.000Z,294.84
2022-08-26T18:08:17.000Z,294.96
2022-08-26T18:09:43.000Z,294.84
2022-08-26T18:11:49.000Z,294.96
2022-08-26T18:13:16.000Z,295.02
2022-08-26T18:15:22.000Z,295.09
2022-08-26T18:16:49.000Z,295.15
2022-08-26T18:18:55.000Z,295.09
2022-08-26T18:20:21.000Z,295.02
2022-08-26T18:22:28.000Z,294.77
2022-08-26T18:25:19.000Z,294.46
2022-08-26T18:26:46.000Z,294.52
2022-08-26T18:28:52.000Z,294.4
2022-08-26T18:30:18.000Z,294.46
2022-08-26T18:32:24.000Z,294.46
2022-08-26T18:33:51.000Z,294.46
2022-08-26T18:35:57.000Z,294.34
2022-08-26T18:37:24.000Z,294.34
2022-08-26T18:39:35.000Z,294.52
2022-08-26T18:41:02.000Z,294.71
2022-08-26T18:43:08.000Z,294.71
2022-08-26T18:44:34.000Z,294.84
2022-08-26T18:46:40.000Z,294.71
2022-08-26T18:48:07.000Z,294.77
2022-08-26T18:50:13.000Z,294.65
2022-08-26T18:51:40.000Z,294.71
2022-08-26T18:53:46.000Z,294.77
2022-08-26T18:55:13.000Z,294.71
2022-08-26T18:57:19.000Z,294.65
2022-08-26T18:58:45.000Z,294.65
2022-08-26T19:00:52.000Z,294.77
2022-08-26T19:03:43.000Z,294.65
2022-08-26T19:05:09.000Z,294.59
2022-08-26T19:07:15.000Z,294.65
2022-08-26T19:08:42.000Z,294.65
2022-08-26T19:10:48.000Z,294.59
2022-08-26T19:12:17.000Z,294.52
2022-08-26T19:14:23.000Z,294.46
2022-08-26T19:15:49.000Z,294.46
2022-08-26T19:17:56.000Z,294.27
2022-08-26T19:19:22.000Z,294.21
2022-08-26T19:21:28.000Z,293.96
2022-08-26T19:22:55.000Z,293.96
2022-08-26T19:25:09.000Z,293.96
2022-08-26T19:26:36.000Z,293.9
2022-08-26T19:28:42.000Z,293.9
2022-08-26T19:30:08.000Z,294.02
2022-08-26T19:32:15.000Z,294.02
2022-08-26T19:33:41.000Z,293.96
2022-08-26T19:35:47.000Z,293.96
2022-08-26T19:37:14.000Z,293.96
2022-08-26T19:39:20.000Z,294.02
2022-08-26T19:42:11.000Z,293.96
2022-08-26T19:43:38.000Z,293.84
2022-08-26T19:45:45.000Z,294.15
2022-08-26T19:47:11.000Z,294.21
2022-08-26T19:49:17.000Z,294.21
2022-08-26T19:50:44.000Z,294.21
2022-08-26T19:52:50.000Z,294.27
2022-08-26T19:54:17.000Z,294.34
2022-08-26T19:56:23.000Z,294.27
2022-08-26T19:57:49.000Z,294.27
2022-08-26T19:59:55.000Z,294.27
2022-08-26T20:01:22.000Z,294.34
2022-08-26T20:03:28.000Z,294.34
2022-08-26T20:04:55.000Z,294.34
2022-08-26T20:07:01.000Z,294.34
2022-08-26T20:08:27.000Z,294.4
2022-08-26T20:10:34.000Z,294.34
2022-08-26T20:12:00.000Z,294.34
2022-08-26T20:14:06.000Z,294.34
2022-08-26T20:15:33.000Z,294.34
2022-08-26T20:17:39.000Z,294.27
2022-08-26T20:20:30.000Z,294.34
2022-08-26T20:21:58.000Z,294.34
2022-08-26T20:24:04.000Z,294.34
2022-08-26T20:25:31.000Z,294.34
2022-08-26T20:27:37.000Z,294.34
2022-08-26T20:29:03.000Z,294.34
2022-08-26T20:31:09.000Z,294.27
2022-08-26T20:32:37.000Z,294.34
2022-08-26T20:34:43.000Z,294.27
2022-08-26T20:36:09.000Z,294.27
2022-08-26T20:38:15.000Z,294.21
2022-08-26T20:39:46.000Z,294.21
2022-08-26T20:41:52.000Z,294.21
2022-08-26T20:43:18.000Z,294.21
2022-08-26T20:45:24.000Z,294.21
2022-08-26T20:46:51.000Z,294.21
2022-08-26T20:48:57.000Z,294.21
2022-08-26T20:50:25.000Z,294.21
2022-08-26T20:52:31.000Z,294.27
2022-08-26T20:53:57.000Z,294.27
2022-08-26T20:56:04.000Z,294.21
2022-08-26T20:58:55.000Z,294.21
2022-08-26T21:00:21.000Z,294.27
2022-08-26T21:02:31.000Z,294.34
2022-08-26T21:03:57.000Z,294.34
2022-08-26T21:06:03.000Z,294.27
2022-08-26T21:07:30.000Z,294.15
2022-08-26T21:09:36.000Z,294.15
2022-08-26T21:11:03.000Z,294.09
2022-08-26T21:13:11.000Z,293.96
2022-08-26T21:14:38.000Z,294.02
2022-08-26T21:16:44.000Z,293.84
2022-08-26T21:18:11.000Z,293.77
2022-08-26T21:20:17.000Z,293.77
2022-08-26T21:21:43.000Z,293.71
2022-08-26T21:23:49.000Z,293.65
2022-08-26T21:25:16.000Z,293.59
2022-08-26T21:27:22.000Z,293.65
2022-08-26T21:28:52.000Z,293.65
2022-08-26T21:30:58.000Z,293.71
2022-08-26T21:32:25.000Z,293.71
2022-08-26T21:34:31.000Z,293.71
2022-08-26T21:37:23.000Z,293.71
2022-08-26T21:38:49.000Z,293.71
2022-08-26T21:40:55.000Z,293.71
2022-08-26T21:42:22.000Z,293.71
2022-08-26T21:44:28.000Z,293.71
2022-08-26T21:45:54.000Z,293.65
2022-08-26T21:48:01.000Z,293.71
2022-08-26T21:49:27.000Z,293.71
2022-08-26T21:51:33.000Z,293.71
2022-08-26T21:53:00.000Z,293.71
2022-08-26T21:55:06.000Z,293.65
2022-08-26T21:56:35.000Z,293.65
2022-08-26T21:58:42.000Z,293.65
2022-08-26T22:00:08.000Z,293.65
2022-08-26T22:02:14.000Z,293.65
2022-08-26T22:03:41.000Z,293.65
2022-08-26T22:05:51.000Z,293.65
2022-08-26T22:07:18.000Z,293.65
2022-08-26T22:09:24.000Z,293.65
2022-08-26T22:10:50.000Z,293.65
2022-08-26T22:12:57.000Z,293.65
2022-08-26T22:15:48.000Z,293.65
2022-08-26T22:17:14.000Z,293.71
2022-08-26T22:19:20.000Z,293.65
2022-08-26T22:20:48.000Z,293.71
2022-08-26T22:22:54.000Z,293.65
2022-08-26T22:24:21.000Z,293.65
2022-08-26T22:26:27.000Z,293.65
2022-08-26T22:27:53.000Z,293.65
2022-08-26T22:30:00.000Z,293.71
2022-08-26T22:31:26.000Z,293.65
2022-08-26T22:33:42.000Z,293.65
2022-08-26T22:35:09.000Z,293.65
2022-08-26T22:37:32.000Z,293.71
2022-08-26T22:38:59.000Z,293.65
2022-08-26T22:41:05.000Z,293.59
2022-08-26T22:42:32.000Z,293.59
2022-08-26T22:44:39.000Z,293.52
2022-08-26T22:46:05.000Z,293.59
2022-08-26T22:48:11.000Z,293.59
2022-08-26T22:49:38.000Z,293.59
2022-08-26T22:51:44.000Z,293.52
2022-08-26T22:54:35.000Z,293.46
2022-08-26T22:56:01.000Z,293.52
2022-08-26T22:58:08.000Z,293.52
2022-08-26T22:59:35.000Z,293.52
2022-08-26T23:01:41.000Z,293.52